Time;durP1;ratioP1;P1;durP2;ratioP2;P2;SDS_P1;SDS_P2;PMS_P1;PMS_P2;Temp;Humidity;BMP_temperature;BMP_pressure;BME280_temperature;BME280_humidity;BME280_pressure;Samples;Min_cycle;Max_cycle;Signal;HPM_P1;HPM_P2
2021/12/16 00:04:19;;;;;;;8.50;3.10;;;23.30;54.40;;;;;;214383;1310;25607;-52
2021/12/16 00:09:12;;;;;;;6.90;2.70;;;23.40;54.40;;;;;;214327;1309;22569;-51
2021/12/16 00:35:52;;;;;;;6.10;2.60;;;23.40;54.60;;;;;;214370;1309;22567;-54
2021/12/16 00:40:58;;;;;;;4.30;2.70;;;23.30;55.00;;;;;;214076;1309;22618;-53
2021/12/16 00:56:58;;;;;;;4.80;3.00;;;23.30;55.50;;;;;;214394;1313;25751;-52
2021/12/16 01:34:27;;;;;;;5.30;3.10;;;22.90;57.30;;;;;;214379;1309;23127;-51
2021/12/16 01:50:06;;;;;;;6.60;3.30;;;22.80;57.70;;;;;;214223;1309;22692;-52
2021/12/16 01:55:19;;;;;;;;;;;22.70;57.90;;;;;;214173;1312;22567;-51
2021/12/16 02:00:29;;;;;;;4.90;2.70;;;22.70;57.60;;;;;;214389;1309;22582;-53
2021/12/16 02:11:31;;;;;;;4.20;2.70;;;22.60;57.40;;;;;;213185;1315;24568;-55
2021/12/16 02:37:47;;;;;;;3.40;2.20;;;22.50;57.20;;;;;;214184;1312;25626;-52
2021/12/16 02:53:18;;;;;;;4.90;2.30;;;22.40;57.20;;;;;;213751;1312;25670;-55
2021/12/16 02:58:23;;;;;;;4.70;2.70;;;22.30;57.20;;;;;;213812;1312;22645;-52
2021/12/16 03:03:28;;;;;;;4.00;2.40;;;22.30;57.20;;;;;;214509;1309;22910;-52
2021/12/16 03:08:33;;;;;;;5.40;2.30;;;22.20;57.10;;;;;;214222;1309;22555;-53
2021/12/16 03:13:44;;;;;;;5.90;2.60;;;22.20;57.10;;;;;;214267;1313;25524;-51
2021/12/16 03:19:16;;;;;;;;;;;22.20;57.00;;;;;;214397;1309;24277;-52
2021/12/16 03:40:31;;;;;;;3.80;2.30;;;22.30;56.40;;;;;;214178;1309;22593;-54
2021/12/16 03:51:18;;;;;;;3.10;2.20;;;22.80;55.30;;;;;;214376;1309;23006;-53
2021/12/16 03:56:23;;;;;;;3.40;1.90;;;22.90;55.10;;;;;;214141;1310;24403;-55
2021/12/16 04:01:41;;;;;;;3.80;2.10;;;22.90;54.70;;;;;;214309;1309;22729;-52
2021/12/16 04:06:45;;;;;;;3.30;2.10;;;23.00;54.50;;;;;;214166;1313;25470;-55
2021/12/16 04:12:08;;;;;;;3.40;2.10;;;23.00;54.80;;;;;;214083;1313;22652;-53
2021/12/16 04:17:13;;;;;;;4.40;2.20;;;23.00;54.80;;;;;;214465;1309;22827;-55
2021/12/16 04:22:37;;;;;;;5.40;2.00;;;23.10;54.30;;;;;;214434;1309;22570;-52
2021/12/16 04:27:43;;;;;;;4.90;2.50;;;23.00;54.30;;;;;;214336;1309;22592;-53
2021/12/16 04:32:47;;;;;;;3.00;2.10;;;23.10;54.20;;;;;;214092;1312;25543;-52
2021/12/16 04:37:52;;;;;;;3.50;2.00;;;23.10;54.00;;;;;;214485;1309;25531;-54
2021/12/16 04:43:02;;;;;;;3.20;2.20;;;23.10;54.20;;;;;;214437;1309;23206;-52
2021/12/16 04:48:13;;;;;;;3.80;2.20;;;23.10;54.00;;;;;;214054;1309;22577;-51
2021/12/16 04:53:17;;;;;;;5.40;1.90;;;23.10;54.00;;;;;;214481;1310;24396;-54
2021/12/16 04:58:26;;;;;;;3.20;2.00;;;23.10;53.90;;;;;;214500;1310;22716;-52
2021/12/16 05:03:30;;;;;;;4.70;2.20;;;23.20;53.80;;;;;;214257;1314;23385;-52
2021/12/16 05:08:39;;;;;;;3.20;2.10;;;23.20;53.60;;;;;;214289;1310;22590;-55
2021/12/16 05:13:49;;;;;;;4.40;2.40;;;23.20;53.50;;;;;;214155;1312;22580;-52
2021/12/16 05:19:01;;;;;;;4.30;1.90;;;23.20;53.50;;;;;;214193;1314;22577;-54
2021/12/16 05:29:46;;;;;;;2.80;2.10;;;23.30;53.30;;;;;;214331;1309;22599;-53
2021/12/16 05:34:50;;;;;;;3.10;2.00;;;23.30;53.50;;;;;;214157;1309;22618;-54
2021/12/16 05:39:54;;;;;;;2.70;1.80;;;23.30;53.30;;;;;;214414;1309;22583;-54
2021/12/16 05:45:26;;;;;;;3.50;1.90;;;23.30;53.20;;;;;;214262;1309;22568;-53
2021/12/16 05:50:33;;;;;;;3.30;1.80;;;23.30;53.10;;;;;;214337;1308;25575;-52
2021/12/16 05:55:40;;;;;;;2.90;1.90;;;23.30;53.20;;;;;;214383;1310;22548;-56
2021/12/16 06:01:01;;;;;;;4.50;2.00;;;23.30;53.00;;;;;;214403;1309;22558;-57
2021/12/16 06:06:05;;;;;;;3.60;2.20;;;23.30;53.10;;;;;;214399;1309;24316;-55
2021/12/16 06:11:21;;;;;;;2.80;2.10;;;23.30;53.10;;;;;;214240;1309;22674;-52
2021/12/16 06:27:16;;;;;;;3.30;2.20;;;23.40;52.70;;;;;;214277;1309;22559;-55
2021/12/16 06:32:19;;;;;;;3.30;2.10;;;23.40;52.70;;;;;;213930;1312;22578;-54
2021/12/16 06:37:24;;;;;;;3.90;1.80;;;23.40;52.70;;;;;;214278;1310;25500;-52
2021/12/16 06:42:29;;;;;;;3.30;2.00;;;23.40;52.70;;;;;;214382;1309;22593;-54
2021/12/16 06:47:43;;;;;;;4.80;2.00;;;23.40;52.70;;;;;;214439;1309;22581;-51
2021/12/16 06:52:48;;;;;;;3.50;2.30;;;23.40;52.80;;;;;;214238;1313;24326;-55
2021/12/16 06:57:55;;;;;;;6.30;2.30;;;23.40;53.10;;;;;;214279;1309;25349;-52
2021/12/16 07:03:05;;;;;;;3.70;2.10;;;23.40;54.10;;;;;;214288;1306;24395;-54
2021/12/16 07:08:13;;;;;;;7.40;2.30;;;23.50;53.60;;;;;;214417;1309;23405;-52
2021/12/16 07:13:29;;;;;;;7.60;2.30;;;23.40;53.70;;;;;;213983;1310;24305;-52
2021/12/16 07:18:33;;;;;;;4.90;2.60;;;23.40;54.10;;;;;;214435;1309;22699;-50
2021/12/16 07:23:37;;;;;;;6.00;2.40;;;23.40;54.50;;;;;;214426;1309;22603;-52
2021/12/16 07:28:40;;;;;;;8.70;2.20;;;23.40;54.00;;;;;;214267;1309;22561;-54
2021/12/16 07:33:44;;;;;;;7.70;2.40;;;23.50;54.30;;;;;;214119;1309;22548;-53
2021/12/16 07:38:48;;;;;;;6.40;2.30;;;23.60;54.10;;;;;;214248;1309;22623;-53
2021/12/16 07:49:09;;;;;;;5.60;2.40;;;23.50;54.40;;;;;;214197;1309;22603;-54
2021/12/16 07:54:14;;;;;;;5.60;2.40;;;23.40;54.70;;;;;;214199;1309;24286;-51
2021/12/16 07:59:19;;;;;;;12.80;2.60;;;23.30;55.20;;;;;;214371;1309;25107;-54
2021/12/16 08:04:28;;;;;;;19.10;2.80;;;23.20;55.50;;;;;;214178;1309;24246;-53
2021/12/16 08:09:35;;;;;;;9.00;2.60;;;23.10;56.60;;;;;;214143;1309;22583;-54
2021/12/16 08:14:40;;;;;;;11.80;2.70;;;22.90;56.80;;;;;;216734;1313;25489;-52
2021/12/16 08:19:45;;;;;;;5.60;2.30;;;22.90;57.00;;;;;;213738;1315;25552;-54
2021/12/16 08:24:49;;;;;;;10.80;2.40;;;22.80;57.10;;;;;;214355;1309;25211;-52
2021/12/16 08:29:53;;;;;;;8.40;2.70;;;22.80;56.80;;;;;;213905;1314;24295;-55
2021/12/16 08:34:56;;;;;;;7.40;2.40;;;22.70;56.90;;;;;;213993;1309;22610;-52
2021/12/16 08:40:02;;;;;;;5.60;1.80;;;22.70;56.90;;;;;;214316;1309;22647;-51
2021/12/16 08:45:10;;;;;;;6.60;2.30;;;22.60;56.90;;;;;;214346;1309;22643;-54
2021/12/16 08:50:16;;;;;;;5.30;2.10;;;22.60;56.80;;;;;;214233;1309;25546;-54
2021/12/16 08:55:22;;;;;;;6.50;2.60;;;22.50;56.90;;;;;;214264;1309;23462;-53
2021/12/16 09:00:38;;;;;;;6.70;2.40;;;22.50;57.00;;;;;;214437;1309;23184;-52
2021/12/16 09:05:46;;;;;;;7.50;2.70;;;22.40;56.90;;;;;;214174;1309;163071;-54
2021/12/16 09:11:05;;;;;;;4.90;2.00;;;22.40;57.20;;;;;;214254;1309;24248;-55
2021/12/16 09:16:14;;;;;;;4.50;2.40;;;22.30;57.00;;;;;;214190;1309;25390;-51
2021/12/16 09:21:28;;;;;;;4.50;2.20;;;22.30;57.10;;;;;;214127;1309;23111;-52
2021/12/16 09:26:52;;;;;;;4.00;2.30;;;22.20;56.90;;;;;;214181;1309;24536;-53
2021/12/16 09:32:04;;;;;;;4.50;2.30;;;22.20;56.90;;;;;;214226;1312;25548;-53
2021/12/16 09:37:11;;;;;;;5.70;2.80;;;22.30;56.60;;;;;;214196;1309;24236;-51
2021/12/16 09:42:19;;;;;;;5.10;2.00;;;22.60;55.70;;;;;;214038;1309;26526;-54
2021/12/16 09:47:32;;;;;;;5.00;1.80;;;22.80;54.60;;;;;;214184;1309;25652;-53
2021/12/16 09:52:52;;;;;;;3.90;2.20;;;22.90;54.80;;;;;;214189;1309;24287;-55
2021/12/16 09:58:14;;;;;;;5.30;1.90;;;23.00;54.70;;;;;;213818;1310;24279;-54
2021/12/16 10:03:35;;;;;;;4.00;2.00;;;23.00;54.50;;;;;;214187;1309;22806;-55
2021/12/16 10:08:46;;;;;;;3.40;1.90;;;23.00;54.60;;;;;;214257;1314;22655;-52
2021/12/16 10:19:19;;;;;;;3.70;1.90;;;23.10;54.50;;;;;;214203;1309;25562;-54
2021/12/16 10:24:32;;;;;;;4.00;2.00;;;23.10;54.70;;;;;;214191;1310;22666;-55
2021/12/16 10:29:40;;;;;;;4.10;2.10;;;23.10;55.00;;;;;;214202;1309;22605;-55
2021/12/16 10:35:02;;;;;;;2.90;1.70;;;23.10;54.60;;;;;;214190;1309;22711;-56
2021/12/16 10:40:28;;;;;;;4.00;2.30;;;23.00;54.70;;;;;;214252;1310;24326;-55
2021/12/16 10:45:50;;;;;;;5.90;1.90;;;23.00;54.50;;;;;;214190;1309;22766;-51
2021/12/16 10:51:06;;;;;;;4.30;1.90;;;23.10;54.50;;;;;;214071;1309;24230;-51
2021/12/16 10:56:11;;;;;;;2.80;2.00;;;23.20;54.40;;;;;;214217;1309;22584;-51
2021/12/16 11:01:41;;;;;;;6.90;2.60;;;23.20;53.70;;;;;;214392;1314;22798;-51
2021/12/16 11:07:08;;;;;;;5.20;2.40;;;23.20;53.20;;;;;;214140;1309;23076;-54
2021/12/16 11:12:18;;;;;;;4.00;2.50;;;23.20;53.10;;;;;;214051;1309;24229;-52
2021/12/16 11:17:31;;;;;;;3.50;2.20;;;23.30;53.10;;;;;;214226;1314;25352;-53
2021/12/16 11:22:38;;;;;;;3.90;2.50;;;23.30;52.70;;;;;;214164;1315;22624;-51
2021/12/16 11:27:49;;;;;;;5.40;2.20;;;23.30;52.40;;;;;;214241;1316;22558;-51
2021/12/16 11:33:26;;;;;;;4.40;2.20;;;23.30;52.60;;;;;;214097;1309;24254;-55
2021/12/16 11:38:37;;;;;;;3.70;1.70;;;23.30;52.10;;;;;;214416;1309;24669;-56
2021/12/16 11:43:43;;;;;;;3.50;1.90;;;23.30;52.00;;;;;;214342;1309;22577;-54
2021/12/16 11:48:51;;;;;;;3.50;2.10;;;23.30;51.90;;;;;;214536;1309;22633;-55
2021/12/16 11:54:04;;;;;;;4.20;2.10;;;23.30;51.80;;;;;;214124;1309;24279;-52
2021/12/16 11:59:11;;;;;;;3.80;2.20;;;23.30;51.80;;;;;;214268;1309;23749;-54
2021/12/16 12:04:16;;;;;;;4.70;1.90;;;23.20;51.60;;;;;;214262;1313;25322;-55
2021/12/16 12:09:33;;;;;;;3.80;2.10;;;23.30;51.60;;;;;;214233;1313;22640;-54
2021/12/16 12:14:45;;;;;;;2.70;1.80;;;23.30;51.50;;;;;;214411;1309;24326;-52
2021/12/16 12:19:53;;;;;;;3.40;2.10;;;23.30;51.30;;;;;;214247;1310;22561;-52
2021/12/16 12:24:59;;;;;;;2.70;2.00;;;23.30;51.30;;;;;;213946;1312;24428;-51
2021/12/16 12:30:07;;;;;;;3.20;2.00;;;23.30;51.10;;;;;;214319;1309;22789;-53
2021/12/16 12:35:29;;;;;;;3.60;1.80;;;23.40;51.10;;;;;;213786;1309;22590;-53
2021/12/16 12:40:39;;;;;;;4.30;2.00;;;23.30;51.00;;;;;;214110;1309;22597;-54
2021/12/16 12:45:44;;;;;;;3.70;2.20;;;23.30;50.90;;;;;;214203;1309;22670;-55
2021/12/16 12:50:53;;;;;;;3.50;2.20;;;23.30;50.70;;;;;;213974;1309;22568;-52
2021/12/16 12:56:36;;;;;;;3.90;2.10;;;23.30;50.90;;;;;;214427;1309;24446;-52
2021/12/16 13:01:57;;;;;;;3.10;2.10;;;23.30;50.90;;;;;;214527;1310;25534;-53
2021/12/16 13:07:05;;;;;;;3.70;2.20;;;23.30;50.80;;;;;;214278;1312;26900;-54
2021/12/16 13:12:36;;;;;;;3.50;2.10;;;23.30;51.00;;;;;;214187;1309;22587;-53
2021/12/16 13:28:56;;;;;;;4.00;2.30;;;23.20;50.90;;;;;;214157;1309;25617;-52
2021/12/16 13:34:03;;;;;;;6.30;2.80;;;23.10;51.40;;;;;;214348;1309;26799;-53
2021/12/16 13:39:18;;;;;;;5.70;3.20;;;23.10;52.30;;;;;;214202;1309;22681;-52
2021/12/16 13:44:54;;;;;;;3.50;2.20;;;23.20;52.00;;;;;;213848;1315;22676;-54
2021/12/16 14:07:02;;;;;;;4.20;2.30;;;23.50;51.80;;;;;;214111;1309;24446;-53
2021/12/16 14:23:30;;;;;;;5.20;2.30;;;23.40;51.70;;;;;;214195;1315;24249;-52
2021/12/16 14:45:16;;;;;;;5.10;2.50;;;23.40;51.20;;;;;;214265;1309;22591;-53
2021/12/16 14:50:35;;;;;;;4.20;2.60;;;23.40;51.10;;;;;;214221;1309;23249;-54
2021/12/16 14:55:46;;;;;;;4.80;2.70;;;23.40;50.80;;;;;;213945;1310;22574;-51
2021/12/16 15:01:21;;;;;;;4.90;2.20;;;23.30;50.70;;;;;;214288;1315;25616;-55
2021/12/16 15:06:42;;;;;;;4.40;1.80;;;23.30;51.00;;;;;;214204;1315;22678;-55
2021/12/16 15:11:58;;;;;;;5.00;2.80;;;23.30;50.60;;;;;;214182;1316;22676;-54
2021/12/16 15:17:48;;;;;;;4.90;2.50;;;23.30;50.50;;;;;;214398;1315;22655;-54
2021/12/16 15:44:37;;;;;;;3.60;2.10;;;23.20;49.80;;;;;;214296;1310;24288;-54
2021/12/16 15:49:42;;;;;;;3.30;2.10;;;23.30;49.70;;;;;;214351;1315;24249;-52
2021/12/16 15:54:52;;;;;;;4.00;2.70;;;23.20;49.60;;;;;;214379;1316;25511;-51
2021/12/16 16:00:26;;;;;;;6.00;2.70;;;23.20;49.40;;;;;;214175;1315;22729;-52
2021/12/16 16:05:38;;;;;;;5.10;2.30;;;23.30;49.40;;;;;;214024;1315;22630;-53
2021/12/16 16:10:47;;;;;;;7.80;2.20;;;23.40;49.20;;;;;;214261;1309;22605;-51
2021/12/16 16:15:59;;;;;;;4.80;2.50;;;23.40;49.20;;;;;;214111;1313;22761;-52
2021/12/16 16:21:09;;;;;;;4.60;2.50;;;23.50;49.10;;;;;;213825;1315;22774;-50
2021/12/16 16:26:15;;;;;;;7.30;3.10;;;23.60;49.70;;;;;;214044;1309;24848;-48
2021/12/16 16:31:23;;;;;;;6.70;3.00;;;23.60;49.20;;;;;;214007;1309;22628;-50
2021/12/16 16:36:31;;;;;;;;;;;23.60;49.30;;;;;;213978;1314;24287;-51
2021/12/16 16:41:50;;;;;;;6.50;2.60;;;23.50;49.10;;;;;;214047;1309;24330;-52
2021/12/16 16:47:17;;;;;;;8.50;2.90;;;23.50;49.20;;;;;;214096;1309;25391;-51
2021/12/16 16:52:51;;;;;;;7.60;2.60;;;23.50;49.50;;;;;;213935;1309;22603;-52
2021/12/16 16:58:14;;;;;;;6.60;2.80;;;23.60;49.20;;;;;;214156;1313;22587;-53
2021/12/16 17:03:22;;;;;;;5.50;2.80;;;23.60;49.20;;;;;;214282;1309;180682;-53
2021/12/16 17:08:31;;;;;;;8.50;2.70;;;23.60;49.30;;;;;;214362;1309;23125;-51
2021/12/16 17:19:03;;;;;;;6.40;3.00;;;23.70;51.30;;;;;;214288;1309;23413;-51
2021/12/16 17:24:22;;;;;;;8.90;2.90;;;23.80;50.10;;;;;;214297;1312;22587;-54
2021/12/16 17:30:02;;;;;;;5.50;2.70;;;23.60;49.70;;;;;;214129;1309;22581;-51
2021/12/16 17:35:17;;;;;;;5.50;2.60;;;23.30;50.20;;;;;;214228;1310;22633;-55
2021/12/16 17:40:41;;;;;;;5.20;2.70;;;23.20;50.30;;;;;;214398;1310;25011;-54
2021/12/16 17:46:04;;;;;;;4.80;2.60;;;23.00;50.50;;;;;;214248;1309;22575;-52
2021/12/16 17:51:18;;;;;;;4.30;2.30;;;23.00;50.60;;;;;;214287;1314;22668;-53
2021/12/16 17:56:26;;;;;;;4.40;2.50;;;22.90;50.60;;;;;;214350;1309;22610;-52
2021/12/16 18:01:34;;;;;;;6.30;2.70;;;22.80;50.70;;;;;;214499;1309;23962;-51
2021/12/16 18:06:54;;;;;;;4.60;2.60;;;22.70;51.00;;;;;;213933;1312;22777;-51
2021/12/16 18:12:24;;;;;;;5.50;2.60;;;22.70;50.70;;;;;;214234;1309;24247;-51
2021/12/16 18:17:55;;;;;;;13.00;3.00;;;22.70;50.60;;;;;;213995;1309;22655;-51
2021/12/16 18:23:26;;;;;;;29.90;3.90;;;22.60;50.80;;;;;;214127;1309;22776;-55
2021/12/16 18:28:48;;;;;;;6.30;3.00;;;22.60;51.40;;;;;;213889;1309;22597;-56
2021/12/16 18:33:56;;;;;;;6.40;2.90;;;22.50;51.40;;;;;;214015;1309;22593;-53
2021/12/16 18:39:20;;;;;;;6.30;2.60;;;22.40;51.90;;;;;;214021;1309;22595;-54
2021/12/16 18:44:36;;;;;;;6.20;2.80;;;22.40;52.40;;;;;;214142;1309;25650;-55
2021/12/16 18:50:38;;;;;;;5.40;2.50;;;22.30;52.30;;;;;;214028;1309;24297;-53
2021/12/16 18:56:10;;;;;;;6.20;2.30;;;22.40;52.30;;;;;;213967;1309;25260;-54
2021/12/16 19:01:38;;;;;;;4.80;2.10;;;22.50;51.90;;;;;;214038;1309;22730;-52
2021/12/16 19:06:54;;;;;;;4.40;2.60;;;22.90;51.50;;;;;;213852;1312;24309;-54
2021/12/16 19:12:25;;;;;;;6.20;2.30;;;23.10;50.80;;;;;;214787;1309;25813;-54
2021/12/16 19:17:42;;;;;;;4.50;2.30;;;23.20;51.00;;;;;;214829;1309;24233;-52
2021/12/16 19:22:55;;;;;;;5.80;2.30;;;23.40;50.50;;;;;;214907;1309;25379;-54
2021/12/16 19:28:23;;;;;;;7.20;2.50;;;23.40;50.60;;;;;;214761;1309;22600;-52
2021/12/16 19:33:48;;;;;;;5.10;2.40;;;23.40;50.50;;;;;;214740;1309;24950;-51
2021/12/16 19:39:21;;;;;;;9.60;2.80;;;23.40;50.50;;;;;;214202;1309;25675;-52
2021/12/16 19:44:53;;;;;;;12.60;2.70;;;23.40;51.00;;;;;;214326;1314;22671;-56
2021/12/16 19:50:15;;;;;;;23.10;2.80;;;23.60;52.60;;;;;;214233;1309;22772;-53
2021/12/16 19:55:28;;;;;;;17.10;2.90;;;23.50;52.10;;;;;;214341;1309;24254;-54
2021/12/16 20:01:03;;;;;;;8.60;2.70;;;23.50;52.60;;;;;;214374;1309;22588;-54
2021/12/16 20:06:16;;;;;;;17.60;3.10;;;23.60;52.60;;;;;;214136;1310;22592;-55
2021/12/16 20:11:30;;;;;;;10.80;3.00;;;23.40;52.70;;;;;;214308;1309;24405;-53
2021/12/16 20:16:43;;;;;;;12.30;3.00;;;23.40;52.60;;;;;;213992;1312;25379;-55
2021/12/16 20:22:02;;;;;;;8.40;2.50;;;23.40;52.80;;;;;;214431;1309;24326;-56
2021/12/16 20:27:22;;;;;;;8.50;3.10;;;23.40;52.20;;;;;;214396;1314;22573;-55
2021/12/16 20:32:31;;;;;;;12.00;2.80;;;23.50;52.50;;;;;;214316;1309;22757;-53
2021/12/16 20:37:35;;;;;;;11.10;2.80;;;23.50;52.10;;;;;;214473;1309;25507;-51
2021/12/16 20:42:46;;;;;;;6.30;2.80;;;23.50;52.00;;;;;;213899;1312;22581;-53
2021/12/16 20:47:54;;;;;;;8.80;2.60;;;23.50;52.10;;;;;;214378;1310;24245;-54
2021/12/16 20:53:00;;;;;;;8.20;3.10;;;23.40;52.10;;;;;;214305;1309;23245;-52
2021/12/16 20:58:21;;;;;;;8.00;2.80;;;23.50;52.00;;;;;;214383;1309;25421;-54
2021/12/16 21:03:30;;;;;;;8.60;3.00;;;23.50;52.40;;;;;;214045;1309;22697;-51
2021/12/16 21:08:35;;;;;;;11.20;2.70;;;23.50;51.80;;;;;;214303;1315;22586;-53
2021/12/16 21:13:40;;;;;;;9.30;3.00;;;23.50;51.60;;;;;;214122;1309;22580;-52
2021/12/16 21:18:49;;;;;;;8.10;3.10;;;23.50;51.60;;;;;;214453;1300;22577;-51
2021/12/16 21:23:56;;;;;;;6.60;2.20;;;23.50;51.50;;;;;;213939;1316;22586;-52
2021/12/16 21:29:00;;;;;;;5.60;2.50;;;23.60;51.50;;;;;;214191;1315;22590;-51
2021/12/16 21:40:00;;;;;;;5.00;2.50;;;23.60;51.30;;;;;;214173;1309;25530;-55
2021/12/16 21:45:27;;;;;;;5.00;2.30;;;23.60;51.60;;;;;;214003;1309;22700;-53
2021/12/16 21:50:45;;;;;;;4.90;2.50;;;23.60;51.10;;;;;;214202;1315;24283;-54
2021/12/16 21:56:04;;;;;;;2.90;1.80;;;23.60;51.10;;;;;;214349;1316;24245;-55
2021/12/16 22:01:12;;;;;;;8.30;2.70;;;23.70;51.10;;;;;;214332;1314;22583;-51
2021/12/16 22:06:31;;;;;;;5.20;2.20;;;23.70;51.00;;;;;;214258;1315;24252;-53
2021/12/16 22:11:54;;;;;;;4.40;2.30;;;23.70;51.00;;;;;;214083;1309;24323;-54
2021/12/16 22:17:08;;;;;;;6.70;2.20;;;23.70;50.90;;;;;;214316;1313;24290;-52
2021/12/16 22:22:15;;;;;;;5.90;2.50;;;23.70;50.90;;;;;;214190;1309;27022;-51
2021/12/16 22:27:19;;;;;;;5.50;2.30;;;23.70;50.80;;;;;;214198;1316;24250;-54
2021/12/16 22:32:36;;;;;;;3.70;2.30;;;23.70;50.90;;;;;;214015;1316;22643;-56
2021/12/16 22:38:01;;;;;;;7.20;2.10;;;23.70;50.90;;;;;;214107;1315;25234;-52
2021/12/16 22:43:23;;;;;;;10.00;2.90;;;23.70;51.10;;;;;;214232;1309;22670;-51
2021/12/16 22:48:33;;;;;;;6.00;2.30;;;23.70;51.00;;;;;;214369;1316;25630;-53
2021/12/16 22:53:38;;;;;;;6.70;2.30;;;23.70;51.10;;;;;;214369;1316;22654;-56
2021/12/16 22:58:46;;;;;;;9.00;2.20;;;23.70;51.20;;;;;;213829;1310;22610;-52
2021/12/16 23:03:58;;;;;;;5.70;2.10;;;23.70;51.30;;;;;;214255;1312;23130;-52
2021/12/16 23:09:05;;;;;;;5.40;2.40;;;23.70;51.40;;;;;;214357;1316;23968;-51
2021/12/16 23:14:15;;;;;;;5.90;2.60;;;23.70;51.80;;;;;;214346;1315;22596;-53
2021/12/16 23:25:13;;;;;;;6.80;2.20;;;23.70;51.90;;;;;;214333;1314;22658;-53
2021/12/16 23:30:17;;;;;;;7.40;2.30;;;23.60;51.60;;;;;;214206;1316;25457;-56
2021/12/16 23:35:21;;;;;;;3.40;2.10;;;23.70;51.60;;;;;;214029;1316;22558;-54
2021/12/16 23:40:25;;;;;;;4.30;2.40;;;23.60;51.70;;;;;;214276;1314;22696;-53
2021/12/16 23:45:51;;;;;;;4.30;2.10;;;23.60;51.60;;;;;;213965;1316;22625;-53
2021/12/16 23:56:18;;;;;;;4.30;2.30;;;23.60;51.70;;;;;;214264;1312;22694;-51
